createdAt,value
2022-09-29T00:00:27.076Z,4.03
2022-09-29T00:02:54.294Z,7.30
2022-09-29T00:05:21.551Z,3.93
2022-09-29T00:07:48.318Z,5.03
2022-09-29T00:10:15.166Z,5.10
2022-09-29T00:12:41.851Z,3.87
2022-09-29T00:15:09.095Z,2.97
2022-09-29T00:17:35.758Z,5.87
2022-09-29T00:20:02.428Z,6.30
2022-09-29T00:22:29.109Z,3.10
2022-09-29T00:24:55.806Z,3.47
2022-09-29T00:27:22.467Z,3.93
2022-09-29T00:29:49.267Z,4.47
2022-09-29T00:32:16.037Z,4.83
2022-09-29T00:34:42.705Z,3.83
2022-09-29T00:37:09.367Z,6.07
2022-09-29T00:39:35.995Z,7.67
2022-09-29T00:42:02.741Z,5.83
2022-09-29T00:44:54.987Z,4.03
2022-09-29T00:47:22.337Z,4.70
2022-09-29T00:49:51.758Z,5.13
2022-09-29T00:52:24.086Z,3.80
2022-09-29T00:54:56.303Z,6.97
2022-09-29T00:57:29.246Z,7.13
2022-09-29T01:00:09.354Z,6.63
2022-09-29T01:02:40.195Z,3.40
2022-09-29T01:05:11.734Z,3.03
2022-09-29T01:07:39.133Z,5.77
2022-09-29T01:10:06.607Z,4.03
2022-09-29T01:12:33.376Z,8.93
2022-09-29T01:15:00.713Z,6.60
2022-09-29T01:17:28.023Z,5.03
2022-09-29T01:20:14.312Z,6.43
2022-09-29T01:22:59.551Z,5.50
2022-09-29T01:25:53.466Z,4.03
2022-09-29T01:28:40.155Z,4.50
2022-09-29T01:31:29.796Z,3.77
2022-09-29T01:34:24.581Z,4.80
2022-09-29T01:37:05.520Z,7.50
2022-09-29T01:39:41.920Z,3.27
2022-09-29T01:42:22.149Z,10.80
2022-09-29T01:44:52.140Z,5.03
2022-09-29T01:47:36.558Z,4.07
2022-09-29T01:50:20.161Z,3.90
2022-09-29T01:52:52.356Z,3.87
2022-09-29T01:55:23.031Z,3.37
2022-09-29T01:58:01.679Z,4.97
2022-09-29T02:00:31.938Z,2.93
2022-09-29T02:03:16.486Z,3.03
2022-09-29T02:05:54.990Z,3.27
2022-09-29T02:08:32.935Z,3.70
2022-09-29T02:11:12.517Z,3.30
2022-09-29T02:14:02.838Z,3.23
2022-09-29T02:16:34.372Z,7.40
2022-09-29T02:19:27.027Z,2.80
2022-09-29T02:21:54.571Z,5.47
2022-09-29T02:24:23.031Z,5.07
2022-09-29T02:26:49.764Z,3.07
2022-09-29T02:29:17.339Z,4.57
2022-09-29T02:31:45.288Z,2.70
2022-09-29T02:34:15.981Z,4.43
2022-09-29T02:36:48.609Z,4.80
2022-09-29T02:39:48.723Z,4.27
2022-09-29T02:43:06.206Z,4.30
2022-09-29T02:45:48.018Z,3.50
2022-09-29T02:48:30.345Z,5.50
2022-09-29T02:51:18.975Z,3.00
2022-09-29T02:54:13.615Z,5.07
2022-09-29T02:57:07.155Z,3.73
2022-09-29T02:59:50.485Z,2.97
2022-09-29T03:02:26.719Z,4.40
2022-09-29T03:04:54.035Z,2.93
2022-09-29T03:07:21.920Z,2.97
2022-09-29T03:09:48.651Z,3.37
2022-09-29T03:12:15.366Z,5.40
2022-09-29T03:14:42.083Z,3.17
2022-09-29T03:17:08.798Z,5.23
2022-09-29T03:19:35.545Z,4.60
2022-09-29T03:22:03.661Z,3.50
2022-09-29T03:24:31.664Z,2.87
2022-09-29T03:26:58.424Z,3.37
2022-09-29T03:29:25.216Z,3.10
2022-09-29T03:31:51.976Z,3.03
2022-09-29T03:34:18.686Z,3.20
2022-09-29T03:36:45.368Z,4.33
2022-09-29T03:39:12.210Z,3.03
2022-09-29T03:41:38.990Z,3.17
2022-09-29T03:44:05.657Z,3.00
2022-09-29T03:46:32.378Z,4.20
2022-09-29T03:48:59.087Z,3.87
2022-09-29T03:51:25.822Z,2.83
2022-09-29T03:53:52.479Z,5.37
2022-09-29T03:56:19.154Z,3.40
2022-09-29T03:58:45.784Z,3.50
2022-09-29T04:01:12.567Z,3.20
2022-09-29T04:03:39.221Z,3.57
2022-09-29T04:06:06.131Z,3.97
2022-09-29T04:08:35.303Z,4.07
2022-09-29T04:11:01.978Z,4.80
2022-09-29T04:13:28.738Z,4.30
2022-09-29T04:16:00.722Z,4.17
2022-09-29T04:18:27.694Z,4.33
2022-09-29T04:20:54.853Z,4.07
2022-09-29T04:23:21.575Z,4.23
2022-09-29T04:25:48.355Z,4.83
2022-09-29T04:28:15.064Z,4.87
2022-09-29T04:30:41.837Z,5.13
2022-09-29T04:33:08.522Z,7.07
2022-09-29T04:35:37.005Z,7.30
2022-09-29T04:38:03.885Z,8.07
2022-09-29T04:40:30.612Z,7.60
2022-09-29T04:42:57.365Z,7.67
2022-09-29T04:45:24.037Z,10.43
2022-09-29T04:47:50.692Z,6.53
2022-09-29T04:50:17.449Z,6.13
2022-09-29T04:52:44.756Z,5.57
2022-09-29T04:55:12.033Z,7.73
2022-09-29T04:57:40.037Z,6.13
2022-09-29T05:00:08.149Z,16.47
2022-09-29T05:02:35.645Z,21.63
2022-09-29T05:05:02.798Z,13.03
2022-09-29T05:07:29.729Z,12.47
2022-09-29T05:09:56.436Z,11.33
2022-09-29T05:12:23.086Z,11.87
2022-09-29T05:14:49.739Z,15.13
2022-09-29T05:17:16.408Z,9.83
2022-09-29T05:19:43.051Z,13.37
2022-09-29T05:22:09.933Z,20.73
2022-09-29T05:24:36.624Z,23.00
2022-09-29T05:27:03.703Z,22.47
2022-09-29T05:29:30.435Z,27.57
2022-09-29T05:31:57.237Z,26.00
2022-09-29T05:34:24.062Z,26.57
2022-09-29T05:36:51.107Z,19.53
2022-09-29T05:39:20.942Z,18.73
2022-09-29T05:41:49.117Z,13.23
2022-09-29T05:44:16.661Z,13.73
2022-09-29T05:46:43.527Z,10.50
2022-09-29T05:49:10.863Z,11.63
2022-09-29T05:51:37.548Z,9.87
2022-09-29T05:54:04.261Z,10.20
2022-09-29T05:56:30.933Z,9.63
2022-09-29T05:58:57.597Z,10.57
2022-09-29T06:01:26.288Z,10.03
2022-09-29T06:03:56.707Z,9.20
2022-09-29T06:06:25.769Z,10.33
2022-09-29T06:08:53.260Z,9.67
2022-09-29T06:11:23.111Z,8.73
2022-09-29T06:13:51.855Z,9.30
2022-09-29T06:16:21.025Z,9.87
2022-09-29T06:18:48.372Z,9.20
2022-09-29T06:21:18.487Z,11.17
2022-09-29T06:23:45.850Z,9.80
2022-09-29T06:26:17.149Z,10.80
2022-09-29T06:28:45.698Z,15.20
2022-09-29T06:31:15.592Z,10.63
2022-09-29T06:33:42.929Z,24.83
2022-09-29T06:36:34.170Z,15.30
2022-09-29T06:39:01.245Z,23.43
2022-09-29T06:41:30.004Z,14.80
2022-09-29T06:43:57.300Z,16.97
2022-09-29T06:46:26.853Z,14.13
2022-09-29T06:48:56.642Z,5.93
2022-09-29T06:51:36.496Z,8.73
2022-09-29T06:54:12.196Z,9.13
2022-09-29T06:56:39.917Z,10.43
2022-09-29T06:59:07.455Z,10.60
2022-09-29T07:01:34.572Z,7.13
2022-09-29T07:04:02.568Z,8.77
2022-09-29T07:06:30.257Z,9.57
2022-09-29T07:08:58.812Z,10.00
2022-09-29T07:11:26.467Z,12.93
2022-09-29T07:13:54.626Z,11.00
2022-09-29T07:16:25.373Z,13.57
2022-09-29T07:18:52.736Z,10.07
2022-09-29T07:21:22.045Z,10.37
2022-09-29T07:23:49.615Z,11.83
2022-09-29T07:26:17.446Z,15.23
2022-09-29T07:28:45.165Z,11.07
2022-09-29T07:31:15.995Z,11.33
2022-09-29T07:33:47.795Z,12.57
2022-09-29T07:36:16.206Z,11.67
2022-09-29T07:38:46.204Z,13.80
2022-09-29T07:41:13.204Z,9.40
2022-09-29T07:43:40.311Z,10.87
2022-09-29T07:46:08.438Z,10.70
2022-09-29T07:48:36.549Z,8.23
2022-09-29T07:51:14.728Z,8.93
2022-09-29T07:53:41.996Z,7.60
2022-09-29T07:56:13.444Z,8.20
2022-09-29T07:58:40.569Z,7.50
2022-09-29T08:01:10.754Z,7.07
2022-09-29T08:03:39.208Z,8.63
2022-09-29T08:06:07.619Z,9.90
2022-09-29T08:08:38.794Z,10.10
2022-09-29T08:11:17.688Z,8.93
2022-09-29T08:13:56.329Z,10.40
2022-09-29T08:16:23.596Z,8.70
2022-09-29T08:18:50.415Z,7.80
2022-09-29T08:21:17.549Z,8.60
2022-09-29T08:23:44.577Z,8.00
2022-09-29T08:26:17.365Z,8.40
2022-09-29T08:28:45.310Z,9.97
2022-09-29T08:31:20.312Z,8.13
2022-09-29T08:33:49.768Z,8.40
2022-09-29T08:36:17.667Z,7.93
2022-09-29T08:38:45.834Z,8.97
2022-09-29T08:41:43.391Z,9.27
2022-09-29T08:44:34.451Z,10.63
2022-09-29T08:47:24.133Z,8.13
2022-09-29T08:50:10.959Z,7.68
2022-09-29T08:52:51.903Z,9.52
2022-09-29T08:55:21.887Z,8.27
2022-09-29T08:57:55.270Z,6.75
2022-09-29T09:00:54.261Z,10.40
2022-09-29T09:03:30.477Z,8.15
2022-09-29T09:06:11.625Z,8.80
2022-09-29T09:08:48.434Z,7.28
2022-09-29T09:11:46.210Z,9.80
2022-09-29T09:14:23.606Z,5.60
2022-09-29T09:16:50.746Z,6.95
2022-09-29T09:19:34.141Z,6.60
2022-09-29T09:22:10.383Z,8.63
2022-09-29T09:24:42.757Z,7.05
2022-09-29T09:27:16.855Z,5.70
2022-09-29T09:29:45.278Z,9.05
2022-09-29T09:32:27.814Z,6.25
2022-09-29T09:35:21.181Z,4.57
2022-09-29T09:37:50.249Z,7.40
2022-09-29T09:40:24.176Z,5.47
2022-09-29T09:43:00.104Z,7.50
2022-09-29T09:45:31.583Z,7.25
2022-09-29T09:48:22.831Z,8.45
2022-09-29T09:50:50.801Z,9.95
2022-09-29T09:53:28.726Z,8.45
2022-09-29T09:56:07.447Z,6.90
2022-09-29T09:58:55.211Z,7.43
2022-09-29T10:01:22.278Z,8.80
2022-09-29T10:03:49.035Z,10.05
2022-09-29T10:06:15.709Z,5.70
2022-09-29T10:08:43.035Z,7.03
2022-09-29T10:11:19.149Z,4.97
2022-09-29T10:13:47.185Z,4.22
2022-09-29T10:16:32.396Z,7.07
2022-09-29T10:18:59.115Z,5.18
2022-09-29T10:21:26.165Z,9.57
2022-09-29T10:23:54.599Z,6.97
2022-09-29T10:26:45.783Z,5.28
2022-09-29T10:29:39.374Z,5.88
2022-09-29T10:32:11.939Z,7.30
2022-09-29T10:34:41.982Z,6.53
2022-09-29T10:37:36.460Z,4.50
2022-09-29T10:40:15.317Z,4.22
2022-09-29T10:42:46.902Z,4.45
2022-09-29T10:45:42.516Z,4.38
2022-09-29T10:48:13.657Z,6.55
2022-09-29T10:53:42.846Z,4.88
2022-09-29T10:56:22.147Z,4.75
2022-09-29T10:59:02.954Z,4.78
2022-09-29T11:01:35.032Z,5.53
2022-09-29T11:04:15.759Z,5.60
2022-09-29T11:06:44.209Z,5.80
2022-09-29T11:09:15.587Z,4.97
2022-09-29T11:11:48.597Z,6.30
2022-09-29T11:14:37.578Z,6.20
2022-09-29T11:17:25.774Z,4.70
2022-09-29T11:19:59.369Z,6.10
2022-09-29T11:22:47.014Z,5.32
2022-09-29T11:25:28.701Z,5.85
2022-09-29T11:28:33.619Z,4.80
2022-09-29T11:31:26.228Z,3.85
2022-09-29T11:34:15.292Z,5.28
2022-09-29T11:37:07.427Z,4.57
2022-09-29T11:39:52.620Z,4.10
2022-09-29T11:42:38.644Z,6.85
2022-09-29T11:45:11.021Z,4.28
2022-09-29T11:47:59.398Z,4.13
2022-09-29T11:50:36.417Z,3.63
2022-09-29T11:53:15.116Z,4.88
2022-09-29T11:56:21.096Z,3.50
2022-09-29T11:59:04.587Z,4.43
2022-09-29T12:01:51.214Z,6.25
2022-09-29T12:04:34.225Z,4.13
2022-09-29T12:07:57.424Z,6.43
2022-09-29T12:10:44.195Z,3.83
2022-09-29T12:13:30.194Z,5.38
2022-09-29T12:16:04.065Z,3.75
2022-09-29T12:18:55.745Z,3.75
2022-09-29T12:21:37.878Z,4.88
2022-09-29T12:24:07.319Z,3.00
2022-09-29T12:26:35.105Z,4.38
2022-09-29T12:29:16.029Z,4.63
2022-09-29T12:31:46.430Z,3.33
2022-09-29T12:34:20.413Z,2.40
2022-09-29T12:37:02.406Z,5.03
2022-09-29T12:39:56.595Z,3.00
2022-09-29T12:42:52.757Z,5.63
2022-09-29T12:45:48.624Z,3.17
2022-09-29T12:48:19.310Z,6.05
2022-09-29T12:51:01.611Z,4.18
2022-09-29T12:53:37.892Z,3.30
2022-09-29T12:56:14.148Z,2.50
2022-09-29T12:58:53.722Z,5.85
2022-09-29T13:01:33.153Z,4.25
2022-09-29T13:04:12.184Z,1.73
2022-09-29T13:07:11.418Z,4.45
2022-09-29T13:09:56.461Z,4.32
2022-09-29T13:12:34.262Z,5.75
2022-09-29T13:15:06.675Z,4.70
2022-09-29T13:18:04.340Z,5.38
2022-09-29T13:20:57.096Z,4.60
2022-09-29T13:23:35.575Z,3.03
2022-09-29T13:26:28.555Z,3.85
2022-09-29T13:29:10.703Z,3.70
2022-09-29T13:34:07.250Z,4.30
2022-09-29T13:36:39.062Z,4.30
2022-09-29T13:39:17.892Z,4.40
2022-09-29T13:41:44.666Z,3.33
2022-09-29T13:44:25.719Z,5.30
2022-09-29T13:46:54.907Z,6.23
2022-09-29T13:49:21.539Z,3.67
2022-09-29T13:52:21.164Z,7.40
2022-09-29T13:54:47.803Z,6.63
2022-09-29T13:57:25.290Z,5.17
2022-09-29T13:59:56.406Z,8.40
2022-09-29T14:02:43.200Z,6.80
2022-09-29T14:05:25.338Z,8.87
2022-09-29T14:07:55.128Z,10.50
2022-09-29T14:10:29.558Z,5.67
2022-09-29T14:13:08.105Z,5.47
2022-09-29T14:15:43.770Z,7.70
2022-09-29T14:18:40.538Z,5.53
2022-09-29T14:21:12.413Z,6.17
2022-09-29T14:23:49.163Z,6.67
2022-09-29T14:26:53.755Z,9.00
2022-09-29T14:29:22.739Z,6.80
2022-09-29T14:31:54.230Z,5.70
2022-09-29T14:34:23.409Z,4.30
2022-09-29T14:36:53.935Z,8.03
2022-09-29T14:39:26.458Z,7.67
2022-09-29T14:41:53.934Z,2.90
2022-09-29T14:44:23.408Z,3.17
2022-09-29T14:47:27.774Z,2.43
2022-09-29T14:50:32.982Z,3.03
2022-09-29T14:53:32.330Z,4.03
2022-09-29T14:56:17.410Z,2.83
2022-09-29T14:59:10.304Z,11.00
2022-09-29T15:01:55.921Z,10.60
2022-09-29T15:04:22.730Z,20.10
2022-09-29T15:06:51.605Z,17.20
2022-09-29T15:09:21.424Z,14.07
2022-09-29T15:11:52.525Z,9.40
2022-09-29T15:14:27.717Z,5.63
2022-09-29T15:17:22.801Z,3.43
2022-09-29T15:20:02.042Z,5.37
2022-09-29T15:23:04.443Z,13.80
2022-09-29T15:25:47.197Z,6.33
2022-09-29T15:28:27.908Z,5.53
2022-09-29T15:30:59.159Z,4.10
2022-09-29T15:33:28.904Z,4.10
2022-09-29T15:36:06.835Z,5.03
2022-09-29T15:38:38.669Z,2.43
2022-09-29T15:41:17.297Z,3.07
2022-09-29T15:43:57.993Z,4.90
2022-09-29T15:46:26.400Z,9.33
2022-09-29T15:49:18.292Z,5.57
2022-09-29T15:52:02.081Z,8.40
2022-09-29T15:54:40.374Z,6.23
2022-09-29T15:57:26.845Z,4.53
2022-09-29T15:59:56.021Z,6.30
2022-09-29T16:02:42.685Z,4.70
2022-09-29T16:05:17.481Z,4.57
2022-09-29T16:07:59.231Z,4.90
2022-09-29T16:10:48.292Z,8.00
2022-09-29T16:13:21.402Z,3.73
2022-09-29T16:15:50.299Z,3.83
2022-09-29T16:18:32.948Z,3.30
2022-09-29T16:21:04.849Z,1.87
2022-09-29T16:23:48.442Z,2.70
2022-09-29T16:26:39.375Z,2.80
2022-09-29T16:29:10.232Z,3.33
2022-09-29T16:31:39.659Z,5.53
2022-09-29T16:34:22.368Z,5.53
2022-09-29T16:37:01.605Z,9.57
2022-09-29T16:39:40.242Z,8.13
2022-09-29T16:42:14.695Z,6.20
2022-09-29T16:44:47.669Z,6.70
2022-09-29T16:47:23.569Z,7.13
2022-09-29T16:49:58.211Z,5.50
2022-09-29T16:52:46.188Z,6.27
2022-09-29T16:55:28.531Z,6.17
2022-09-29T16:57:57.947Z,4.27
2022-09-29T17:00:24.971Z,5.10
2022-09-29T17:03:05.505Z,6.93
2022-09-29T17:05:43.617Z,6.83
2022-09-29T17:08:22.113Z,6.40
2022-09-29T17:10:54.098Z,6.90
2022-09-29T17:13:21.875Z,6.77
2022-09-29T17:15:51.861Z,9.40
2022-09-29T17:18:20.106Z,5.40
2022-09-29T17:20:46.807Z,5.37
2022-09-29T17:23:13.734Z,12.13
2022-09-29T17:25:44.071Z,5.87
2022-09-29T17:28:25.662Z,5.63
2022-09-29T17:30:55.486Z,5.03
2022-09-29T17:33:22.711Z,4.43
2022-09-29T17:35:55.159Z,5.30
2022-09-29T17:38:23.849Z,9.37
2022-09-29T17:40:56.598Z,9.10
2022-09-29T17:43:24.332Z,10.93
2022-09-29T17:45:54.470Z,8.33
2022-09-29T17:48:21.326Z,8.50
2022-09-29T17:50:50.402Z,8.47
2022-09-29T17:53:18.575Z,15.93
2022-09-29T17:55:49.577Z,13.60
2022-09-29T17:58:18.307Z,14.20
2022-09-29T18:00:49.098Z,12.77
2022-09-29T18:03:17.261Z,19.13
2022-09-29T18:05:56.194Z,11.30
2022-09-29T18:08:25.413Z,9.60
2022-09-29T18:10:52.499Z,3.70
2022-09-29T18:13:25.307Z,9.97
2022-09-29T18:15:52.046Z,10.17
2022-09-29T18:18:21.830Z,10.37
2022-09-29T18:20:50.175Z,7.27
2022-09-29T18:23:19.304Z,9.47
2022-09-29T18:25:48.709Z,7.63
2022-09-29T18:28:16.605Z,10.80
2022-09-29T18:30:45.807Z,8.57
2022-09-29T18:33:15.329Z,7.50
2022-09-29T18:35:52.169Z,10.77
2022-09-29T18:38:18.813Z,8.53
2022-09-29T18:40:47.154Z,5.97
2022-09-29T18:43:14.835Z,6.47
2022-09-29T18:45:42.875Z,4.77
2022-09-29T18:48:14.965Z,5.67
2022-09-29T18:50:46.708Z,7.03
2022-09-29T18:53:16.294Z,4.20
2022-09-29T18:55:43.373Z,6.17
2022-09-29T18:58:13.267Z,14.53
2022-09-29T19:00:43.526Z,16.97
2022-09-29T19:03:10.219Z,17.40
2022-09-29T19:05:41.915Z,16.17
2022-09-29T19:08:10.821Z,12.10
2022-09-29T19:10:38.312Z,7.17
2022-09-29T19:13:08.322Z,7.97
2022-09-29T19:15:40.017Z,8.53
2022-09-29T19:18:08.003Z,6.20
2022-09-29T19:20:35.485Z,6.80
2022-09-29T19:23:03.354Z,7.43
2022-09-29T19:25:33.219Z,6.57
2022-09-29T19:28:04.150Z,9.33
2022-09-29T19:30:36.027Z,10.27
2022-09-29T19:33:02.879Z,8.00
2022-09-29T19:35:29.581Z,6.73
2022-09-29T19:37:59.083Z,8.70
2022-09-29T19:40:30.682Z,9.37
2022-09-29T19:42:58.569Z,8.77
2022-09-29T19:45:27.492Z,8.30
2022-09-29T19:47:57.229Z,8.77
2022-09-29T19:50:43.418Z,8.37
2022-09-29T19:53:10.488Z,6.27
2022-09-29T19:55:40.323Z,8.63
2022-09-29T19:58:07.553Z,16.90
2022-09-29T20:00:34.938Z,10.73
2022-09-29T20:03:01.949Z,14.33
2022-09-29T20:05:28.693Z,11.13
2022-09-29T20:07:55.433Z,8.83
2022-09-29T20:10:22.506Z,8.33
2022-09-29T20:12:49.209Z,11.20
2022-09-29T20:15:15.952Z,10.67
2022-09-29T20:17:44.269Z,10.87
2022-09-29T20:20:11.817Z,11.30
2022-09-29T20:22:38.796Z,12.60
2022-09-29T20:25:07.398Z,12.50
2022-09-29T20:27:35.810Z,12.23
2022-09-29T20:30:05.208Z,12.53
2022-09-29T20:32:33.624Z,14.33
2022-09-29T20:35:00.422Z,9.87
2022-09-29T20:37:29.046Z,17.17
2022-09-29T20:39:56.233Z,9.67
2022-09-29T20:42:23.699Z,10.90
2022-09-29T20:44:55.110Z,8.67
2022-09-29T20:47:24.773Z,7.53
2022-09-29T20:49:51.750Z,8.13
2022-09-29T20:52:18.484Z,6.80
2022-09-29T20:54:47.910Z,8.53
2022-09-29T20:57:18.183Z,7.70
2022-09-29T20:59:44.877Z,8.13
2022-09-29T21:02:13.396Z,8.67
2022-09-29T21:04:42.345Z,10.20
2022-09-29T21:07:29.065Z,9.40
2022-09-29T21:09:55.874Z,9.13
2022-09-29T21:12:22.798Z,7.47
2022-09-29T21:14:49.854Z,5.80
2022-09-29T21:17:16.720Z,9.97
2022-09-29T21:19:43.494Z,7.93
2022-09-29T21:22:10.651Z,8.93
2022-09-29T21:24:39.014Z,6.60
2022-09-29T21:27:06.736Z,6.80
2022-09-29T21:29:33.738Z,7.37
2022-09-29T21:32:02.850Z,4.57
2022-09-29T21:34:29.744Z,5.00
2022-09-29T21:36:56.390Z,7.07
2022-09-29T21:39:23.125Z,5.10
2022-09-29T21:41:49.826Z,6.00
2022-09-29T21:44:23.291Z,7.20
2022-09-29T21:46:50.714Z,6.40
2022-09-29T21:49:19.233Z,10.90
2022-09-29T21:51:48.312Z,10.87
2022-09-29T21:54:20.393Z,12.30
2022-09-29T21:56:48.514Z,9.23
2022-09-29T21:59:17.525Z,7.90
2022-09-29T22:01:45.430Z,8.43
2022-09-29T22:04:12.837Z,9.93
2022-09-29T22:06:40.561Z,8.47
2022-09-29T22:09:09.240Z,7.23
2022-09-29T22:11:42.243Z,8.17
2022-09-29T22:14:12.503Z,8.93
2022-09-29T22:16:39.938Z,9.33
2022-09-29T22:19:23.858Z,6.87
2022-09-29T22:21:52.698Z,7.57
2022-09-29T22:24:19.396Z,7.87
2022-09-29T22:26:46.180Z,7.03
2022-09-29T22:29:13.358Z,6.40
2022-09-29T22:31:40.854Z,6.23
2022-09-29T22:34:08.321Z,5.53
2022-09-29T22:36:35.960Z,5.03
2022-09-29T22:39:04.905Z,4.63
2022-09-29T22:41:33.096Z,4.77
2022-09-29T22:44:00.780Z,4.80
2022-09-29T22:46:30.630Z,4.30
2022-09-29T22:48:58.163Z,5.03
2022-09-29T22:51:24.876Z,5.33
2022-09-29T22:53:51.922Z,10.30
2022-09-29T22:56:21.968Z,4.30
2022-09-29T22:58:49.539Z,4.83
2022-09-29T23:01:19.753Z,7.37
2022-09-29T23:03:48.834Z,3.80
2022-09-29T23:06:15.603Z,4.57
2022-09-29T23:08:42.493Z,4.47
2022-09-29T23:11:18.410Z,4.37
2022-09-29T23:13:45.823Z,4.27
2022-09-29T23:16:14.000Z,5.03
2022-09-29T23:18:44.855Z,5.37
2022-09-29T23:21:20.319Z,6.13
2022-09-29T23:24:07.291Z,4.83
2022-09-29T23:26:33.977Z,4.60
2022-09-29T23:29:00.776Z,4.43
2022-09-29T23:31:27.738Z,9.77
2022-09-29T23:33:56.439Z,4.93
2022-09-29T23:36:25.520Z,4.63
2022-09-29T23:39:10.489Z,5.70
2022-09-29T23:41:43.358Z,4.07
2022-09-29T23:44:11.898Z,4.37
2022-09-29T23:46:39.909Z,3.80
2022-09-29T23:49:15.182Z,3.37
2022-09-29T23:51:47.943Z,7.50
2022-09-29T23:54:16.205Z,7.23
2022-09-29T23:56:43.151Z,6.27
2022-09-29T23:59:09.994Z,7.23
